Terminal Aerodrome Forecast
Issued by NWS

Home | Current Version | Previous Version | Graphics & Text | Print | Product List | Glossary On
Versions: 1 2 3 4 5 6 7 8 9 10 11 12 13
000
FTUS42 KMHX 240958 AAB
TAFISO
TAF AMD
KISO 240958Z 2410/2506 VRB03KT 1SM BR SCT200
      TEMPO 2410/2411 1/2SM FG OVC012
     FM241100 VRB03KT 3SM BR SCT150
      TEMPO 2411/2413 1SM BR
     FM241400 VRB04KT P6SM SCT120
      AMD LTD TO CLD VIS AND WIND=

USA.gov is the U.S. government's official web portal to all federal, state and local government web resources and services.